createdAt,value
2023-07-21T00:00:10.462Z,15.23
2023-07-21T00:01:11.390Z,15.20
2023-07-21T00:02:12.246Z,15.21
2023-07-21T00:03:13.216Z,15.20
2023-07-21T00:04:14.148Z,15.21
2023-07-21T00:05:15.096Z,15.21
2023-07-21T00:06:16.013Z,15.20
2023-07-21T00:07:16.882Z,15.19
2023-07-21T00:08:17.755Z,15.14
2023-07-21T00:09:18.639Z,15.13
2023-07-21T00:10:19.525Z,15.10
2023-07-21T00:11:20.409Z,15.10
2023-07-21T00:12:21.292Z,15.09
2023-07-21T00:13:22.182Z,15.06
2023-07-21T00:14:23.054Z,15.07
2023-07-21T00:15:23.937Z,15.07
2023-07-21T00:16:25.300Z,15.07
2023-07-21T00:17:25.422Z,15.09
2023-07-21T00:18:26.331Z,15.10
2023-07-21T00:19:27.189Z,15.11
2023-07-21T00:20:28.098Z,15.13
2023-07-21T00:21:29.010Z,15.14
2023-07-21T00:22:29.920Z,15.16
2023-07-21T00:23:30.772Z,15.17
2023-07-21T00:24:31.729Z,15.19
2023-07-21T00:25:32.616Z,15.19
2023-07-21T00:26:33.504Z,15.20
2023-07-21T00:27:34.390Z,15.20
2023-07-21T00:28:35.262Z,15.20
2023-07-21T00:29:36.142Z,15.21
2023-07-21T00:30:37.025Z,15.21
2023-07-21T00:31:38.062Z,15.21
2023-07-21T00:32:38.507Z,15.21
2023-07-21T00:33:39.368Z,15.20
2023-07-21T00:34:40.250Z,15.20
2023-07-21T00:35:41.132Z,15.19
2023-07-21T00:36:42.038Z,15.19
2023-07-21T00:37:42.895Z,15.20
2023-07-21T00:38:43.780Z,15.21
2023-07-21T00:39:44.662Z,15.20
2023-07-21T00:40:45.569Z,15.21
2023-07-21T00:41:46.450Z,15.19
2023-07-21T00:42:47.329Z,15.16
2023-07-21T00:43:48.220Z,15.14
2023-07-21T00:44:49.091Z,15.14
2023-07-21T00:45:50.005Z,15.14
2023-07-21T00:46:50.911Z,15.10
2023-07-21T00:47:51.794Z,15.10
2023-07-21T00:48:52.658Z,15.09
2023-07-21T00:49:53.549Z,15.07
2023-07-21T00:50:54.441Z,15.03
2023-07-21T00:51:55.349Z,14.99
2023-07-21T00:52:56.206Z,14.98
2023-07-21T00:53:57.090Z,14.96
2023-07-21T00:54:57.959Z,14.96
2023-07-21T00:55:58.855Z,14.96
2023-07-21T00:56:59.734Z,14.98
2023-07-21T00:58:00.624Z,14.99
2023-07-21T00:59:01.502Z,15.01
2023-07-21T01:00:02.387Z,15.01
2023-07-21T01:01:03.371Z,15.02
2023-07-21T01:02:04.263Z,15.06
2023-07-21T01:03:05.329Z,15.09
2023-07-21T01:04:05.748Z,15.10
2023-07-21T01:05:06.607Z,15.10
2023-07-21T01:06:07.499Z,15.11
2023-07-21T01:07:08.399Z,15.14
2023-07-21T01:08:09.251Z,15.17
2023-07-21T01:09:10.191Z,15.16
2023-07-21T01:10:11.030Z,15.17
2023-07-21T01:11:11.950Z,15.19
2023-07-21T01:12:12.507Z,15.21
2023-07-21T01:13:13.366Z,15.23
2023-07-21T01:14:14.250Z,15.20
2023-07-21T01:15:15.141Z,15.21
2023-07-21T01:16:16.032Z,15.21
2023-07-21T01:17:16.926Z,15.21
2023-07-21T01:18:17.812Z,15.20
2023-07-21T01:19:18.721Z,15.19
2023-07-21T01:20:19.595Z,15.20
2023-07-21T01:21:20.474Z,15.20
2023-07-21T01:22:21.371Z,15.19
2023-07-21T01:23:22.234Z,15.19
2023-07-21T01:24:23.205Z,15.17
2023-07-21T01:25:24.053Z,15.17
2023-07-21T01:26:25.138Z,15.19
2023-07-21T01:27:25.679Z,15.19
2023-07-21T01:28:26.571Z,15.19
2023-07-21T01:29:27.464Z,15.19
2023-07-21T01:30:28.349Z,15.20
2023-07-21T01:31:29.288Z,15.19
2023-07-21T01:32:30.169Z,15.17
2023-07-21T01:33:31.025Z,15.17
2023-07-21T01:34:31.906Z,15.19
2023-07-21T01:35:32.787Z,15.17
2023-07-21T01:36:33.670Z,15.14
2023-07-21T01:37:34.598Z,15.14
2023-07-21T01:38:35.432Z,15.13
2023-07-21T01:39:36.313Z,15.11
2023-07-21T01:40:37.212Z,15.10
2023-07-21T01:41:38.080Z,15.09
2023-07-21T01:42:38.971Z,15.07
2023-07-21T01:43:39.902Z,15.07
2023-07-21T01:44:40.744Z,15.07
2023-07-21T01:45:41.641Z,15.06
2023-07-21T01:46:42.529Z,15.09
2023-07-21T01:47:43.439Z,15.10
2023-07-21T01:48:44.275Z,15.10
2023-07-21T01:49:45.158Z,15.09
2023-07-21T01:50:46.040Z,15.13
2023-07-21T01:51:46.929Z,15.13
2023-07-21T01:52:47.841Z,15.11
2023-07-21T01:53:48.684Z,15.11
2023-07-21T01:54:49.570Z,15.13
2023-07-21T01:55:50.493Z,15.14
2023-07-21T01:56:51.372Z,15.14
2023-07-21T01:57:52.278Z,15.14
2023-07-21T01:58:53.150Z,15.14
2023-07-21T01:59:54.032Z,15.13
2023-07-21T02:00:54.915Z,15.13
2023-07-21T02:01:55.827Z,15.10
2023-07-21T02:02:56.776Z,15.10
2023-07-21T02:03:57.720Z,15.10
2023-07-21T02:04:58.586Z,15.09
2023-07-21T02:05:59.470Z,15.10
2023-07-21T02:07:00.358Z,15.10
2023-07-21T02:08:01.257Z,15.09
2023-07-21T02:09:02.115Z,15.09
2023-07-21T02:10:02.996Z,15.09
2023-07-21T02:11:03.877Z,15.07
2023-07-21T02:12:04.773Z,15.07
2023-07-21T02:13:05.641Z,15.06
2023-07-21T02:14:06.517Z,15.06
2023-07-21T02:15:07.397Z,15.09
2023-07-21T02:16:08.341Z,15.07
2023-07-21T02:17:09.209Z,15.07
2023-07-21T02:18:10.088Z,15.09
2023-07-21T02:19:10.957Z,15.09
2023-07-21T02:20:11.844Z,15.10
2023-07-21T02:21:12.735Z,15.10
2023-07-21T02:22:13.622Z,15.11
2023-07-21T02:23:14.549Z,15.10
2023-07-21T02:24:15.534Z,15.11
2023-07-21T02:25:15.961Z,15.11
2023-07-21T02:26:16.871Z,15.11
2023-07-21T02:27:17.736Z,15.10
2023-07-21T02:28:18.622Z,15.10
2023-07-21T02:29:19.505Z,15.09
2023-07-21T02:30:20.393Z,15.09
2023-07-21T02:31:21.279Z,15.09
2023-07-21T02:32:22.184Z,15.07
2023-07-21T02:33:23.033Z,15.10
2023-07-21T02:34:23.929Z,15.09
2023-07-21T02:35:24.806Z,15.07
2023-07-21T02:36:26.077Z,15.09
2023-07-21T02:37:26.580Z,15.09
2023-07-21T02:38:27.479Z,15.10
2023-07-21T02:39:28.424Z,15.11
2023-07-21T02:40:29.305Z,15.11
2023-07-21T02:41:30.196Z,15.10
2023-07-21T02:42:31.064Z,15.09
2023-07-21T02:43:31.943Z,15.09
2023-07-21T02:44:32.832Z,15.06
2023-07-21T02:45:33.724Z,15.01
2023-07-21T02:46:34.652Z,15.01
2023-07-21T02:47:35.589Z,15.01
2023-07-21T02:48:36.441Z,14.99
2023-07-21T02:49:37.333Z,14.96
2023-07-21T02:50:38.215Z,14.96
2023-07-21T02:51:39.097Z,14.96
2023-07-21T02:52:39.997Z,14.95
2023-07-21T02:53:40.885Z,14.96
2023-07-21T02:54:41.747Z,14.96
2023-07-21T02:55:42.626Z,14.98
2023-07-21T02:56:43.513Z,14.98
2023-07-21T02:57:44.391Z,14.99
2023-07-21T02:58:45.275Z,15.01
2023-07-21T02:59:46.487Z,15.01
2023-07-21T03:00:47.078Z,15.01
2023-07-21T03:01:48.023Z,15.01
2023-07-21T03:02:48.992Z,15.01
2023-07-21T03:03:49.629Z,15.01
2023-07-21T03:04:50.061Z,15.01
2023-07-21T03:05:50.938Z,15.01
2023-07-21T03:06:51.828Z,15.01
2023-07-21T03:07:52.708Z,15.02
2023-07-21T03:08:53.621Z,15.01
2023-07-21T03:09:54.475Z,15.01
2023-07-21T03:10:55.365Z,15.02
2023-07-21T03:11:56.239Z,15.01
2023-07-21T03:12:57.120Z,15.02
2023-07-21T03:13:58.004Z,15.01
2023-07-21T03:14:58.922Z,15.01
2023-07-21T03:16:01.715Z,15.01
2023-07-21T03:17:00.422Z,15.02
2023-07-21T03:18:01.362Z,15.02
2023-07-21T03:19:02.217Z,15.01
2023-07-21T03:20:03.089Z,15.01
2023-07-21T03:21:03.915Z,14.98
2023-07-21T03:22:04.793Z,14.96
2023-07-21T03:23:05.635Z,14.98
2023-07-21T03:24:06.546Z,14.98
2023-07-21T03:25:07.332Z,14.98
2023-07-21T03:26:08.211Z,14.99
2023-07-21T03:27:09.083Z,14.99
2023-07-21T03:28:09.937Z,14.99
2023-07-21T03:29:10.765Z,14.99
2023-07-21T03:30:11.582Z,15.01
2023-07-21T03:31:12.441Z,14.99
2023-07-21T03:32:13.232Z,15.01
2023-07-21T03:33:14.072Z,15.02
2023-07-21T03:34:14.895Z,15.02
2023-07-21T03:35:15.732Z,15.02
2023-07-21T03:36:16.543Z,15.01
2023-07-21T03:37:17.362Z,14.99
2023-07-21T03:38:18.202Z,14.99
2023-07-21T03:39:19.039Z,14.98
2023-07-21T03:40:19.842Z,14.96
2023-07-21T03:41:20.660Z,14.98
2023-07-21T03:42:21.501Z,14.95
2023-07-21T03:43:22.335Z,14.95
2023-07-21T03:44:23.166Z,14.96
2023-07-21T03:45:23.994Z,14.95
2023-07-21T03:46:25.328Z,14.94
2023-07-21T03:47:25.482Z,14.94
2023-07-21T03:48:26.357Z,14.94
2023-07-21T03:49:27.184Z,14.95
2023-07-21T03:50:28.016Z,14.92
2023-07-21T03:51:28.878Z,14.91
2023-07-21T03:52:29.688Z,14.89
2023-07-21T03:53:36.508Z,14.88
2023-07-21T03:54:32.261Z,14.88
2023-07-21T03:55:32.070Z,14.88
2023-07-21T03:56:32.895Z,14.86
2023-07-21T03:57:33.734Z,14.81
2023-07-21T03:58:34.564Z,14.83
2023-07-21T03:59:35.512Z,14.81
2023-07-21T04:00:36.305Z,14.83
2023-07-21T04:01:37.280Z,14.81
2023-07-21T04:02:38.116Z,14.80
2023-07-21T04:03:38.896Z,14.80
2023-07-21T04:04:39.482Z,14.77
2023-07-21T04:05:39.798Z,14.77
2023-07-21T04:06:40.638Z,14.78
2023-07-21T04:07:41.463Z,14.75
2023-07-21T04:08:42.294Z,14.75
2023-07-21T04:09:43.144Z,14.77
2023-07-21T04:10:43.962Z,14.77
2023-07-21T04:11:44.868Z,14.78
2023-07-21T04:12:45.680Z,14.77
2023-07-21T04:13:46.506Z,14.78
2023-07-21T04:14:47.329Z,14.78
2023-07-21T04:15:48.196Z,14.80
2023-07-21T04:16:48.990Z,14.78
2023-07-21T04:17:49.832Z,14.80
2023-07-21T04:18:50.638Z,14.78
2023-07-21T04:19:51.468Z,14.78
2023-07-21T04:20:52.316Z,14.78
2023-07-21T04:21:53.122Z,14.80
2023-07-21T04:22:53.943Z,14.78
2023-07-21T04:23:54.777Z,14.80
2023-07-21T04:24:55.624Z,14.80
2023-07-21T04:25:56.424Z,14.78
2023-07-21T04:26:57.246Z,14.83
2023-07-21T04:27:58.071Z,14.81
2023-07-21T04:28:58.910Z,14.83
2023-07-21T04:29:59.739Z,14.81
2023-07-21T04:31:00.578Z,14.84
2023-07-21T04:32:01.398Z,14.80
2023-07-21T04:33:02.237Z,14.80
2023-07-21T04:34:03.064Z,14.80
2023-07-21T04:35:05.053Z,14.78
2023-07-21T04:36:04.520Z,14.80
2023-07-21T04:37:05.343Z,14.80
2023-07-21T04:38:06.175Z,14.81
2023-07-21T04:39:06.989Z,14.80
2023-07-21T04:40:07.859Z,14.80
2023-07-21T04:41:08.647Z,14.80
2023-07-21T04:42:09.509Z,14.80
2023-07-21T04:43:10.288Z,14.80
2023-07-21T04:44:11.126Z,14.78
2023-07-21T04:45:11.965Z,14.81
2023-07-21T04:46:12.792Z,14.81
2023-07-21T04:47:13.671Z,14.84
2023-07-21T04:48:14.467Z,14.84
2023-07-21T04:49:15.314Z,14.86
2023-07-21T04:50:16.146Z,14.88
2023-07-21T04:51:16.967Z,14.89
2023-07-21T04:52:17.802Z,14.91
2023-07-21T04:53:18.622Z,14.92
2023-07-21T04:54:19.454Z,14.92
2023-07-21T04:55:20.323Z,14.94
2023-07-21T04:56:21.104Z,14.95
2023-07-21T04:57:21.966Z,14.96
2023-07-21T04:58:22.761Z,14.98
2023-07-21T04:59:24.138Z,14.99
2023-07-21T05:00:24.365Z,15.01
2023-07-21T05:01:25.299Z,15.01
2023-07-21T05:02:26.095Z,15.02
2023-07-21T05:03:27.004Z,15.02
2023-07-21T05:04:27.872Z,15.03
2023-07-21T05:05:28.700Z,15.06
2023-07-21T05:06:29.526Z,15.03
2023-07-21T05:07:30.343Z,15.09
2023-07-21T05:08:31.180Z,15.07
2023-07-21T05:09:32.000Z,15.09
2023-07-21T05:10:32.996Z,15.10
2023-07-21T05:11:33.763Z,15.10
2023-07-21T05:12:34.612Z,15.10
2023-07-21T05:13:35.421Z,15.13
2023-07-21T05:14:36.251Z,15.16
2023-07-21T05:15:37.073Z,15.14
2023-07-21T05:16:37.920Z,15.17
2023-07-21T05:17:38.782Z,15.20
2023-07-21T05:18:39.461Z,15.20
2023-07-21T05:19:40.301Z,15.20
2023-07-21T05:20:41.125Z,15.21
2023-07-21T05:21:41.950Z,15.27
2023-07-21T05:22:42.782Z,15.27
2023-07-21T05:23:43.616Z,15.28
2023-07-21T05:24:44.619Z,15.29
2023-07-21T05:25:45.089Z,15.32
2023-07-21T05:26:45.887Z,15.34
2023-07-21T05:27:46.704Z,15.35
2023-07-21T05:28:47.538Z,15.35
2023-07-21T05:29:48.355Z,15.35
2023-07-21T05:30:49.202Z,15.38
2023-07-21T05:31:50.006Z,15.36
2023-07-21T05:32:50.892Z,15.41
2023-07-21T05:33:51.750Z,15.43
2023-07-21T05:34:52.555Z,15.44
2023-07-21T05:35:53.378Z,15.46
2023-07-21T05:36:54.211Z,15.47
2023-07-21T05:37:55.034Z,15.49
2023-07-21T05:38:55.871Z,15.49
2023-07-21T05:39:56.681Z,15.51
2023-07-21T05:40:57.540Z,15.50
2023-07-21T05:41:58.355Z,15.53
2023-07-21T05:42:59.171Z,15.53
2023-07-21T05:44:00.017Z,15.54
2023-07-21T05:45:00.874Z,15.53
2023-07-21T05:46:01.669Z,15.54
2023-07-21T05:47:02.670Z,15.53
2023-07-21T05:48:03.169Z,15.56
2023-07-21T05:49:03.965Z,15.56
2023-07-21T05:50:04.781Z,15.57
2023-07-21T05:51:05.616Z,15.57
2023-07-21T05:52:06.448Z,15.57
2023-07-21T05:53:07.278Z,15.60
2023-07-21T05:54:08.108Z,15.64
2023-07-21T05:55:08.933Z,15.65
2023-07-21T05:56:09.794Z,15.68
2023-07-21T05:57:10.597Z,15.71
2023-07-21T05:58:11.414Z,15.74
2023-07-21T05:59:12.242Z,15.76
2023-07-21T06:00:13.076Z,15.82
2023-07-21T06:01:14.004Z,15.86
2023-07-21T06:02:14.893Z,15.90
2023-07-21T06:03:15.774Z,15.94
2023-07-21T06:04:16.625Z,15.96
2023-07-21T06:05:17.459Z,16.00
2023-07-21T06:06:18.286Z,16.02
2023-07-21T06:07:19.148Z,16.04
2023-07-21T06:08:19.964Z,16.05
2023-07-21T06:09:20.798Z,16.08
2023-07-21T06:10:21.634Z,16.09
2023-07-21T06:11:22.481Z,16.15
2023-07-21T06:12:23.292Z,16.21
2023-07-21T06:13:24.119Z,16.25
2023-07-21T06:14:24.929Z,16.30
2023-07-21T06:15:25.775Z,16.35
2023-07-21T06:16:27.212Z,16.38
2023-07-21T06:17:27.388Z,16.43
2023-07-21T06:18:28.187Z,16.45
2023-07-21T06:19:29.023Z,16.49
2023-07-21T06:20:29.941Z,16.52
2023-07-21T06:21:30.786Z,16.57
2023-07-21T06:22:31.587Z,16.58
2023-07-21T06:23:32.410Z,16.61
2023-07-21T06:24:33.316Z,16.64
2023-07-21T06:25:34.104Z,16.68
2023-07-21T06:26:34.969Z,16.68
2023-07-21T06:27:35.779Z,16.75
2023-07-21T06:28:36.600Z,16.75
2023-07-21T06:29:37.436Z,16.78
2023-07-21T06:30:38.306Z,16.76
2023-07-21T06:31:39.134Z,16.76
2023-07-21T06:32:39.997Z,16.76
2023-07-21T06:33:40.798Z,16.73
2023-07-21T06:34:41.626Z,16.73
2023-07-21T06:35:42.450Z,16.64
2023-07-21T06:36:43.277Z,16.64
2023-07-21T06:37:44.129Z,16.66
2023-07-21T06:38:44.947Z,16.68
2023-07-21T06:39:45.776Z,16.71
2023-07-21T06:40:46.601Z,16.76
2023-07-21T06:41:47.475Z,16.81
2023-07-21T06:42:48.255Z,16.81
2023-07-21T06:43:49.087Z,16.85
2023-07-21T06:44:49.918Z,16.88
2023-07-21T06:45:50.734Z,16.91
2023-07-21T06:46:51.702Z,16.93
2023-07-21T06:47:52.120Z,16.97
2023-07-21T06:48:52.946Z,16.96
2023-07-21T06:49:53.772Z,16.97
2023-07-21T06:50:54.600Z,16.97
2023-07-21T06:51:55.428Z,16.97
2023-07-21T06:52:56.264Z,16.97
2023-07-21T06:53:57.098Z,16.97
2023-07-21T06:54:57.926Z,16.94
2023-07-21T06:55:58.755Z,16.94
2023-07-21T06:56:59.602Z,16.93
2023-07-21T06:58:01.919Z,16.91
2023-07-21T06:59:00.919Z,16.89
2023-07-21T07:00:01.746Z,16.89
2023-07-21T07:01:02.567Z,16.88
2023-07-21T07:02:03.440Z,16.86
2023-07-21T07:03:04.360Z,16.83
2023-07-21T07:04:05.324Z,16.83
2023-07-21T07:05:05.646Z,16.82
2023-07-21T07:06:06.476Z,16.79
2023-07-21T07:07:07.328Z,16.79
2023-07-21T07:08:08.161Z,16.78
2023-07-21T07:09:08.984Z,16.76
2023-07-21T07:10:09.817Z,16.73
2023-07-21T07:11:10.639Z,16.71
2023-07-21T07:12:14.543Z,16.70
2023-07-21T07:13:12.327Z,16.67
2023-07-21T07:14:13.150Z,16.67
2023-07-21T07:15:13.996Z,16.66
2023-07-21T07:16:14.854Z,16.66
2023-07-21T07:17:15.667Z,16.63
2023-07-21T07:18:16.495Z,16.63
2023-07-21T07:19:17.323Z,16.60
2023-07-21T07:20:18.151Z,16.57
2023-07-21T07:21:18.977Z,16.57
2023-07-21T07:22:19.826Z,16.53
2023-07-21T07:23:20.646Z,16.52
2023-07-21T07:24:21.525Z,16.50
2023-07-21T07:25:22.338Z,16.48
2023-07-21T07:26:23.151Z,16.45
2023-07-21T07:27:24.003Z,16.43
2023-07-21T07:28:24.796Z,16.43
2023-07-21T07:29:25.629Z,16.41
2023-07-21T07:30:28.292Z,16.39
2023-07-21T07:31:27.656Z,16.41
2023-07-21T07:32:28.219Z,16.39
2023-07-21T07:33:29.001Z,16.39
2023-07-21T07:34:29.621Z,16.38
2023-07-21T07:35:30.475Z,16.35
2023-07-21T07:36:31.300Z,16.38
2023-07-21T07:37:32.121Z,16.34
2023-07-21T07:38:32.945Z,16.33
2023-07-21T07:39:33.760Z,16.34
2023-07-21T07:40:34.597Z,16.28
2023-07-21T07:41:35.415Z,16.30
2023-07-21T07:42:36.297Z,16.27
2023-07-21T07:43:37.117Z,16.24
2023-07-21T07:44:37.908Z,16.24
2023-07-21T07:45:38.767Z,16.23
2023-07-21T07:46:39.734Z,16.17
2023-07-21T07:47:40.109Z,16.17
2023-07-21T07:48:40.932Z,16.12
2023-07-21T07:49:41.758Z,16.12
2023-07-21T07:50:42.598Z,16.11
2023-07-21T07:51:43.443Z,16.09
2023-07-21T07:52:44.279Z,16.07
2023-07-21T07:53:45.104Z,16.07
2023-07-21T07:54:45.938Z,16.02
2023-07-21T07:55:46.784Z,16.02
2023-07-21T07:56:47.603Z,15.97
2023-07-21T07:57:48.462Z,16.00
2023-07-21T07:58:49.292Z,15.96
2023-07-21T07:59:50.101Z,15.94
2023-07-21T08:00:50.932Z,15.96
2023-07-21T08:01:51.806Z,15.93
2023-07-21T08:02:52.797Z,15.93
2023-07-21T08:03:53.697Z,15.92
2023-07-21T08:04:54.548Z,15.92
2023-07-21T08:05:55.345Z,15.92
2023-07-21T08:06:56.162Z,15.87
2023-07-21T08:07:58.977Z,15.87
2023-07-21T08:08:57.790Z,15.84
2023-07-21T08:09:58.628Z,15.86
2023-07-21T08:10:59.449Z,15.83
2023-07-21T08:12:00.532Z,15.83
2023-07-21T08:13:00.997Z,15.83
2023-07-21T08:14:01.810Z,15.82
2023-07-21T08:15:02.644Z,15.82
2023-07-21T08:16:03.567Z,15.82
2023-07-21T08:17:04.631Z,15.82
2023-07-21T08:18:05.161Z,15.82
2023-07-21T08:19:05.965Z,15.82
2023-07-21T08:20:06.790Z,15.83
2023-07-21T08:21:07.610Z,15.83
2023-07-21T08:22:08.461Z,15.84
2023-07-21T08:23:23.438Z,15.83
2023-07-21T08:24:11.010Z,15.84
2023-07-21T08:25:10.817Z,15.83
2023-07-21T08:26:11.633Z,15.80
2023-07-21T08:27:12.461Z,15.80
2023-07-21T08:28:13.311Z,15.82
2023-07-21T08:29:14.109Z,15.76
2023-07-21T08:30:14.932Z,15.78
2023-07-21T08:31:15.808Z,15.76
2023-07-21T08:32:16.620Z,15.75
2023-07-21T08:33:17.516Z,15.74
2023-07-21T08:34:18.319Z,15.72
2023-07-21T08:35:19.134Z,15.69
2023-07-21T08:36:19.966Z,15.71
2023-07-21T08:37:20.814Z,15.71
2023-07-21T08:38:21.666Z,15.69
2023-07-21T08:39:22.631Z,15.68
2023-07-21T08:40:23.473Z,15.69
2023-07-21T08:41:24.672Z,15.67
2023-07-21T08:42:25.209Z,15.68
2023-07-21T08:43:26.086Z,15.68
2023-07-21T08:44:26.861Z,15.68
2023-07-21T08:45:27.681Z,15.67
2023-07-21T08:46:28.571Z,15.68
2023-07-21T08:47:29.478Z,15.68
2023-07-21T08:48:30.260Z,15.71
2023-07-21T08:49:31.084Z,15.71
2023-07-21T08:50:31.911Z,15.74
2023-07-21T08:51:32.739Z,15.74
2023-07-21T08:52:33.580Z,15.72
2023-07-21T08:53:34.403Z,15.75
2023-07-21T08:54:35.221Z,15.74
2023-07-21T08:55:36.040Z,15.75
2023-07-21T08:56:36.890Z,15.72
2023-07-21T08:57:37.709Z,15.74
2023-07-21T08:58:38.565Z,15.72
2023-07-21T08:59:39.355Z,15.69
2023-07-21T09:00:40.192Z,15.68
2023-07-21T09:01:41.082Z,15.68
2023-07-21T09:02:41.934Z,15.65
2023-07-21T09:03:42.749Z,15.64
2023-07-21T09:04:43.536Z,15.65
2023-07-21T09:05:44.619Z,15.67
2023-07-21T09:06:44.937Z,15.67
2023-07-21T09:07:46.748Z,15.69
2023-07-21T09:08:46.401Z,15.69
2023-07-21T09:09:47.222Z,15.69
2023-07-21T09:10:48.057Z,15.71
2023-07-21T09:11:48.892Z,15.72
2023-07-21T09:12:49.715Z,15.74
2023-07-21T09:13:50.567Z,15.75
2023-07-21T09:14:51.379Z,15.74
2023-07-21T09:15:52.310Z,15.75
2023-07-21T09:16:53.152Z,15.71
2023-07-21T09:17:54.003Z,15.72
2023-07-21T09:18:57.206Z,15.69
2023-07-21T09:19:55.583Z,15.65
2023-07-21T09:20:56.408Z,15.65
2023-07-21T09:21:57.248Z,15.62
2023-07-21T09:22:58.062Z,15.60
2023-07-21T09:23:58.883Z,15.60
2023-07-21T09:24:59.736Z,15.59
2023-07-21T09:26:00.560Z,15.57
2023-07-21T09:27:01.390Z,15.57
2023-07-21T09:28:02.224Z,15.56
2023-07-21T09:29:03.071Z,15.54
2023-07-21T09:30:03.922Z,15.53
2023-07-21T09:31:04.734Z,15.53
2023-07-21T09:32:05.558Z,15.51
2023-07-21T09:33:06.417Z,15.53
2023-07-21T09:34:07.271Z,15.51
2023-07-21T09:35:08.072Z,15.51
2023-07-21T09:36:08.909Z,15.50
2023-07-21T09:37:09.724Z,15.50
2023-07-21T09:38:10.549Z,15.50
2023-07-21T09:39:11.386Z,15.50
2023-07-21T09:40:12.223Z,15.49
2023-07-21T09:41:13.044Z,15.49
2023-07-21T09:42:13.871Z,15.49
2023-07-21T09:43:14.690Z,15.46
2023-07-21T09:44:15.563Z,15.46
2023-07-21T09:45:16.349Z,15.46
2023-07-21T09:46:18.594Z,15.46
2023-07-21T09:47:18.166Z,15.44
2023-07-21T09:48:19.002Z,15.44
2023-07-21T09:49:19.857Z,15.43
2023-07-21T09:50:20.668Z,15.41
2023-07-21T09:51:21.497Z,15.41
2023-07-21T09:52:22.317Z,15.41
2023-07-21T09:53:23.183Z,15.41
2023-07-21T09:54:24.005Z,15.41
2023-07-21T09:55:24.832Z,15.41
2023-07-21T09:56:25.972Z,15.44
2023-07-21T09:57:26.413Z,15.43
2023-07-21T09:58:27.260Z,15.44
2023-07-21T09:59:28.123Z,15.47
2023-07-21T10:00:28.927Z,15.47
2023-07-21T10:01:30.066Z,15.46
2023-07-21T10:02:30.380Z,15.44
2023-07-21T10:03:31.222Z,15.47
2023-07-21T10:04:32.014Z,15.46
2023-07-21T10:05:32.852Z,15.44
2023-07-21T10:06:34.012Z,15.47
2023-07-21T10:07:34.636Z,15.44
2023-07-21T10:08:35.475Z,15.47
2023-07-21T10:09:36.320Z,15.47
2023-07-21T10:10:37.133Z,15.47
2023-07-21T10:11:37.962Z,15.49
2023-07-21T10:12:38.796Z,15.51
2023-07-21T10:13:39.636Z,15.50
2023-07-21T10:14:40.485Z,15.53
2023-07-21T10:15:41.306Z,15.54
2023-07-21T10:16:42.123Z,15.54
2023-07-21T10:17:42.973Z,15.56
2023-07-21T10:18:43.760Z,15.59
2023-07-21T10:19:44.601Z,15.59
2023-07-21T10:20:45.457Z,15.64
2023-07-21T10:21:46.256Z,15.65
2023-07-21T10:22:47.079Z,15.67
2023-07-21T10:23:47.906Z,15.69
2023-07-21T10:24:48.766Z,15.72
2023-07-21T10:25:49.655Z,15.75
2023-07-21T10:26:50.484Z,15.76
2023-07-21T10:27:51.302Z,15.80
2023-07-21T10:28:52.119Z,15.80
2023-07-21T10:29:53.015Z,15.83
2023-07-21T10:30:53.844Z,15.86
2023-07-21T10:31:54.690Z,15.90
2023-07-21T10:32:55.527Z,15.97
2023-07-21T10:33:56.329Z,16.05
2023-07-21T10:34:57.151Z,16.11
2023-07-21T10:35:57.985Z,16.20
2023-07-21T10:36:58.821Z,16.24
2023-07-21T10:37:59.631Z,16.28
2023-07-21T10:39:00.455Z,16.33
2023-07-21T10:40:01.277Z,16.41
2023-07-21T10:41:02.103Z,16.42
2023-07-21T10:42:02.935Z,16.48
2023-07-21T10:43:03.780Z,16.52
2023-07-21T10:44:04.609Z,16.58
2023-07-21T10:45:05.451Z,16.61
2023-07-21T10:46:06.360Z,16.70
2023-07-21T10:47:07.392Z,16.73
2023-07-21T10:48:07.822Z,16.78
2023-07-21T10:49:08.630Z,16.81
2023-07-21T10:50:09.457Z,16.86
2023-07-21T10:51:10.287Z,16.88
2023-07-21T10:52:11.114Z,16.89
2023-07-21T10:53:13.924Z,16.91
2023-07-21T10:54:12.840Z,16.94
2023-07-21T10:55:13.676Z,16.97
2023-07-21T10:56:14.502Z,16.97
2023-07-21T10:57:15.352Z,17.00
2023-07-21T10:58:16.163Z,17.01
2023-07-21T10:59:16.984Z,17.03
2023-07-21T11:00:17.862Z,17.04
2023-07-21T11:01:18.656Z,17.06
2023-07-21T11:02:19.527Z,17.07
2023-07-21T11:03:20.428Z,17.08
2023-07-21T11:04:21.307Z,17.12
2023-07-21T11:05:23.855Z,17.16
2023-07-21T11:06:22.742Z,17.18
2023-07-21T11:07:23.563Z,17.22
2023-07-21T11:08:24.392Z,17.25
2023-07-21T11:09:25.218Z,17.28
2023-07-21T11:10:26.046Z,17.33
2023-07-21T11:11:27.086Z,17.37
2023-07-21T11:12:27.571Z,17.40
2023-07-21T11:13:28.403Z,17.41
2023-07-21T11:14:29.250Z,17.43
2023-07-21T11:15:30.090Z,17.44
2023-07-21T11:16:30.905Z,17.49
2023-07-21T11:17:31.744Z,17.51
2023-07-21T11:18:32.560Z,17.52
2023-07-21T11:19:33.401Z,17.54
2023-07-21T11:20:34.213Z,17.52
2023-07-21T11:21:35.033Z,17.51
2023-07-21T11:22:35.872Z,17.48
2023-07-21T11:23:36.714Z,17.48
2023-07-21T11:24:37.603Z,17.46
2023-07-21T11:25:38.421Z,17.46
2023-07-21T11:26:39.254Z,17.49
2023-07-21T11:27:40.095Z,17.51
2023-07-21T11:28:40.936Z,17.54
2023-07-21T11:29:41.943Z,17.59
2023-07-21T11:30:42.442Z,17.66
2023-07-21T11:31:43.258Z,17.71
2023-07-21T11:32:44.100Z,17.77
2023-07-21T11:33:44.930Z,17.78
2023-07-21T11:34:45.744Z,17.84
2023-07-21T11:35:46.571Z,17.86
2023-07-21T11:36:47.437Z,17.89
2023-07-21T11:37:48.233Z,17.93
2023-07-21T11:38:49.057Z,17.97
2023-07-21T11:39:49.884Z,18.00
2023-07-21T11:40:50.712Z,18.02
2023-07-21T11:41:51.550Z,18.07
2023-07-21T11:42:52.380Z,18.11
2023-07-21T11:43:53.189Z,18.14
2023-07-21T11:44:54.490Z,18.18
2023-07-21T11:45:54.561Z,18.21
2023-07-21T11:46:55.369Z,18.25
2023-07-21T11:47:56.256Z,18.27
2023-07-21T11:48:57.056Z,18.32
2023-07-21T11:49:57.871Z,18.33
2023-07-21T11:50:58.700Z,18.35
2023-07-21T11:51:59.533Z,18.37
2023-07-21T11:53:00.367Z,18.41
2023-07-21T11:54:01.194Z,18.42
2023-07-21T11:55:02.027Z,18.44
2023-07-21T11:56:02.842Z,18.48
2023-07-21T11:57:03.727Z,18.55
2023-07-21T11:58:04.518Z,18.62
2023-07-21T11:59:07.045Z,18.63
2023-07-21T12:00:05.957Z,18.66
2023-07-21T12:01:06.801Z,18.66
2023-07-21T12:02:07.645Z,18.67
2023-07-21T12:03:08.551Z,18.70
2023-07-21T12:04:09.470Z,18.70
2023-07-21T12:05:09.862Z,18.73
2023-07-21T12:06:10.682Z,18.78
2023-07-21T12:07:11.532Z,18.81
2023-07-21T12:08:12.342Z,18.84
2023-07-21T12:09:13.166Z,18.87
2023-07-21T12:10:14.039Z,18.90
2023-07-21T12:11:14.873Z,18.92
2023-07-21T12:12:15.689Z,18.98
2023-07-21T12:13:16.514Z,19.00
2023-07-21T12:14:17.330Z,19.02
2023-07-21T12:15:18.158Z,19.08
2023-07-21T12:16:19.073Z,19.11
2023-07-21T12:17:22.162Z,19.14
2023-07-21T12:18:20.571Z,19.13
2023-07-21T12:19:21.405Z,19.13
2023-07-21T12:20:22.231Z,19.11
2023-07-21T12:21:23.434Z,19.11
2023-07-21T12:22:24.088Z,19.13
2023-07-21T12:23:24.900Z,19.19
2023-07-21T12:24:25.961Z,19.26
2023-07-21T12:25:26.472Z,19.33
2023-07-21T12:26:27.305Z,19.39
2023-07-21T12:27:28.181Z,19.40
2023-07-21T12:28:29.065Z,19.43
2023-07-21T12:29:45.135Z,19.41
2023-07-21T12:30:31.772Z,19.43
2023-07-21T12:31:31.555Z,19.41
2023-07-21T12:32:32.075Z,19.44
2023-07-21T12:33:33.117Z,19.46
2023-07-21T12:34:33.722Z,19.47
2023-07-21T12:35:34.054Z,19.51
2023-07-21T12:36:34.923Z,19.59
2023-07-21T12:37:35.697Z,19.65
2023-07-21T12:38:36.523Z,19.69
2023-07-21T12:39:37.359Z,19.74
2023-07-21T12:40:38.189Z,19.77
2023-07-21T12:41:40.919Z,19.81
2023-07-21T12:42:39.948Z,19.81
2023-07-21T12:43:40.820Z,19.86
2023-07-21T12:44:41.613Z,19.87
2023-07-21T12:45:42.512Z,19.92
2023-07-21T12:46:43.351Z,19.92
2023-07-21T12:47:44.196Z,19.92
2023-07-21T12:48:45.025Z,19.92
2023-07-21T12:49:45.845Z,19.95
2023-07-21T12:50:46.678Z,19.92
2023-07-21T12:51:47.506Z,19.91
2023-07-21T12:52:48.332Z,19.88
2023-07-21T12:53:49.241Z,19.86
2023-07-21T12:54:50.073Z,19.86
2023-07-21T12:55:50.894Z,19.84
2023-07-21T12:56:51.734Z,19.87
2023-07-21T12:57:52.545Z,19.88
2023-07-21T12:58:53.386Z,19.88
2023-07-21T12:59:54.215Z,19.91
2023-07-21T13:00:55.037Z,19.87
2023-07-21T13:01:56.024Z,19.87
2023-07-21T13:02:57.063Z,19.88